createdAt,value
2019-03-20T00:00:48.419Z,101276.60
2019-03-20T00:03:53.619Z,101275.52
2019-03-20T00:06:58.864Z,101272.36
2019-03-20T00:10:04.331Z,101280.39
2019-03-20T00:13:09.570Z,101276.05
2019-03-20T00:16:14.737Z,101284.00
2019-03-20T00:19:20.016Z,101282.61
2019-03-20T00:22:25.672Z,101278.98
2019-03-20T00:25:30.943Z,101273.71
2019-03-20T00:28:36.155Z,101279.12
2019-03-20T00:31:41.321Z,101273.99
2019-03-20T00:34:46.487Z,101272.40
2019-03-20T00:37:52.718Z,101271.96
2019-03-20T00:40:57.970Z,101274.13
2019-03-20T00:44:03.075Z,101271.28
2019-03-20T00:47:08.310Z,101269.74
2019-03-20T00:50:14.672Z,101270.84
2019-03-20T00:53:19.815Z,101271.41
2019-03-20T00:56:25.087Z,101281.84
2019-03-20T00:59:30.443Z,101279.19
2019-03-20T01:02:35.605Z,101272.18
2019-03-20T01:05:40.769Z,101277.61
2019-03-20T01:08:45.948Z,101275.52
2019-03-20T01:11:51.077Z,101268.95
2019-03-20T01:14:56.374Z,101275.73
2019-03-20T01:18:01.441Z,101279.19
2019-03-20T01:21:06.649Z,101282.54
2019-03-20T01:24:11.832Z,101276.81
2019-03-20T01:27:17.112Z,101280.78
2019-03-20T01:30:32.742Z,101274.13
2019-03-20T01:33:37.876Z,101276.39
2019-03-20T01:36:42.954Z,101273.84
2019-03-20T01:39:48.378Z,101275.53
2019-03-20T01:42:53.476Z,101274.59
2019-03-20T01:45:58.660Z,101269.14
2019-03-20T01:49:03.833Z,101266.33
2019-03-20T01:52:08.961Z,101269.12
2019-03-20T01:55:14.174Z,101261.12
2019-03-20T01:58:20.314Z,101267.26
2019-03-20T02:01:25.474Z,101275.38
2019-03-20T02:04:30.618Z,101274.23
2019-03-20T02:07:35.847Z,101270.66
2019-03-20T02:10:40.984Z,101274.81
2019-03-20T02:13:46.211Z,101273.53
2019-03-20T02:16:51.406Z,101275.44
2019-03-20T02:19:56.589Z,101274.61
2019-03-20T02:23:01.689Z,101276.12
2019-03-20T02:26:06.886Z,101276.52
2019-03-20T02:29:12.119Z,101282.15
2019-03-20T02:32:17.320Z,101281.95
2019-03-20T02:35:22.528Z,101285.25
2019-03-20T02:38:27.681Z,101281.41
2019-03-20T02:41:32.864Z,101285.73
2019-03-20T02:44:37.976Z,101278.76
2019-03-20T02:47:43.311Z,101283.20
2019-03-20T02:50:48.430Z,101286.87
2019-03-20T02:53:53.718Z,101278.75
2019-03-20T02:56:58.930Z,101270.17
2019-03-20T03:00:05.048Z,101277.36
2019-03-20T03:03:10.828Z,101281.20
2019-03-20T03:06:15.954Z,101292.98
2019-03-20T03:09:21.081Z,101292.26
2019-03-20T03:12:26.294Z,101293.00
2019-03-20T03:15:31.457Z,101291.78
2019-03-20T03:18:36.633Z,101301.77
2019-03-20T03:21:41.751Z,101307.22
2019-03-20T03:24:46.940Z,101315.54
2019-03-20T03:27:52.076Z,101313.55
2019-03-20T03:30:57.431Z,101315.17
2019-03-20T03:34:02.582Z,101316.66
2019-03-20T03:37:07.687Z,101320.39
2019-03-20T03:40:14.447Z,101320.23
2019-03-20T03:43:19.732Z,101325.90
2019-03-20T03:46:24.851Z,101327.89
2019-03-20T03:49:30.046Z,101333.19
2019-03-20T03:52:35.184Z,101325.55
2019-03-20T03:55:40.655Z,101330.92
2019-03-20T03:58:45.852Z,101329.60
2019-03-20T04:01:50.998Z,101339.02
2019-03-20T04:04:56.153Z,101341.63
2019-03-20T04:08:01.352Z,101340.50
2019-03-20T04:11:06.474Z,101337.54
2019-03-20T04:14:11.609Z,101330.45
2019-03-20T04:17:27.503Z,101332.97
2019-03-20T04:20:32.651Z,101335.50
2019-03-20T04:23:37.766Z,101343.53
2019-03-20T04:26:42.986Z,101339.49
2019-03-20T04:29:48.153Z,101344.33
2019-03-20T04:32:53.351Z,101343.92
2019-03-20T04:35:58.460Z,101336.75
2019-03-20T04:39:03.990Z,101341.58
2019-03-20T04:42:09.228Z,101342.66
2019-03-20T04:45:14.400Z,101347.17
2019-03-20T04:48:19.623Z,101346.45
2019-03-20T04:51:24.715Z,101352.54
2019-03-20T04:54:29.967Z,101351.14
2019-03-20T04:57:35.124Z,101348.98
2019-03-20T05:00:40.285Z,101349.13
2019-03-20T05:03:45.444Z,101359.17
2019-03-20T05:06:58.885Z,101359.13
2019-03-20T05:09:57.492Z,101353.26
2019-03-20T05:13:02.641Z,101357.41
2019-03-20T05:16:07.816Z,101359.27
2019-03-20T05:19:12.960Z,101361.78
2019-03-20T05:22:18.097Z,101361.66
2019-03-20T05:25:23.366Z,101365.95
2019-03-20T05:28:28.488Z,101364.41
2019-03-20T05:31:33.662Z,101371.92
2019-03-20T05:34:38.760Z,101378.81
2019-03-20T05:37:43.949Z,101375.25
2019-03-20T05:40:49.076Z,101375.00
2019-03-20T05:43:54.193Z,101374.04
2019-03-20T05:46:59.396Z,101372.83
2019-03-20T05:50:04.875Z,101382.63
2019-03-20T05:53:09.958Z,101392.47
2019-03-20T05:56:15.083Z,101406.10
2019-03-20T05:59:20.211Z,101418.75
2019-03-20T06:02:25.873Z,101413.66
2019-03-20T06:05:31.005Z,101424.99
2019-03-20T06:08:36.212Z,101429.61
2019-03-20T06:11:41.328Z,101431.02
2019-03-20T06:14:46.492Z,101435.32
2019-03-20T06:17:52.651Z,101441.94
2019-03-20T06:20:57.874Z,101441.89
2019-03-20T06:24:03.132Z,101433.82
2019-03-20T06:27:08.303Z,101434.25
2019-03-20T06:30:14.872Z,101438.92
2019-03-20T06:33:20.056Z,101444.27
2019-03-20T06:36:25.221Z,101454.36
2019-03-20T06:39:30.416Z,101446.78
2019-03-20T06:42:35.581Z,101448.83
2019-03-20T06:45:40.718Z,101447.45
2019-03-20T06:48:45.832Z,101444.06
2019-03-20T06:51:51.122Z,101439.28
2019-03-20T06:54:56.291Z,101449.67
2019-03-20T06:58:01.400Z,101449.89
2019-03-20T07:01:11.744Z,101458.27
2019-03-20T07:04:36.727Z,101453.77
2019-03-20T07:07:44.391Z,101459.63
2019-03-20T07:11:14.894Z,101455.94
2019-03-20T07:14:20.116Z,101462.00
2019-03-20T07:17:25.302Z,101455.61
2019-03-20T07:20:30.454Z,101451.95
2019-03-20T07:23:35.658Z,101458.28
2019-03-20T07:26:40.749Z,101454.92
2019-03-20T07:29:45.949Z,101465.49
2019-03-20T07:32:51.191Z,101467.41
2019-03-20T07:35:56.403Z,101468.05
2019-03-20T07:39:01.675Z,101468.04
2019-03-20T07:42:07.919Z,101467.55
2019-03-20T07:45:13.056Z,101459.69
2019-03-20T07:48:22.524Z,101461.39
2019-03-20T07:51:26.220Z,101463.24
2019-03-20T07:54:31.346Z,101467.05
2019-03-20T07:57:36.606Z,101472.91
2019-03-20T08:00:41.715Z,101476.23
2019-03-20T08:03:46.845Z,101476.00
2019-03-20T08:06:52.018Z,101472.31
2019-03-20T08:09:57.118Z,101472.89
2019-03-20T08:13:02.233Z,101471.50
2019-03-20T08:16:07.424Z,101481.13
2019-03-20T08:19:12.609Z,101471.36
2019-03-20T08:22:17.871Z,101475.27
2019-03-20T08:25:23.010Z,101478.34
2019-03-20T08:28:28.270Z,101469.47
2019-03-20T08:31:33.479Z,101475.86
2019-03-20T08:34:38.564Z,101476.76
2019-03-20T08:37:43.698Z,101479.54
2019-03-20T08:40:48.843Z,101480.45
2019-03-20T08:43:53.952Z,101478.92
2019-03-20T08:46:59.072Z,101477.48
2019-03-20T08:50:04.667Z,101485.14
2019-03-20T08:53:10.430Z,101484.77
2019-03-20T08:56:15.611Z,101491.03
2019-03-20T08:59:20.710Z,101488.34
2019-03-20T09:02:25.847Z,101495.38
2019-03-20T09:05:30.992Z,101496.75
2019-03-20T09:08:36.218Z,101491.28
2019-03-20T09:11:41.335Z,101490.69
2019-03-20T09:14:46.458Z,101489.98
2019-03-20T09:17:51.679Z,101497.19
2019-03-20T09:20:57.942Z,101496.44
2019-03-20T09:24:03.029Z,101496.34
2019-03-20T09:27:08.139Z,101501.64
2019-03-20T09:30:19.030Z,101507.49
2019-03-20T09:33:25.212Z,101505.48
2019-03-20T09:36:30.412Z,101511.16
2019-03-20T09:39:35.553Z,101506.97
2019-03-20T09:42:40.723Z,101501.83
2019-03-20T09:45:45.865Z,101498.27
2019-03-20T09:48:50.920Z,101496.90
2019-03-20T09:51:56.067Z,101501.23
2019-03-20T09:55:01.237Z,101504.58
2019-03-20T09:58:11.540Z,101501.32
2019-03-20T10:01:13.424Z,101495.31
2019-03-20T10:04:18.578Z,101497.73
2019-03-20T10:07:23.726Z,101499.74
2019-03-20T10:10:28.886Z,101491.84
2019-03-20T10:13:33.981Z,101493.00
2019-03-20T10:16:39.108Z,101493.04
2019-03-20T10:19:44.235Z,101488.66
2019-03-20T10:22:49.458Z,101486.55
2019-03-20T10:25:54.620Z,101484.95
2019-03-20T10:29:00.794Z,101480.70
2019-03-20T10:32:05.952Z,101482.83
2019-03-20T10:35:11.184Z,101471.14
2019-03-20T10:38:16.477Z,101475.86
2019-03-20T10:41:21.612Z,101474.43
2019-03-20T10:44:26.758Z,101467.36
2019-03-20T10:47:31.925Z,101471.44
2019-03-20T10:50:37.182Z,101467.03
2019-03-20T10:53:42.324Z,101463.32
2019-03-20T10:56:47.423Z,101455.44
2019-03-20T10:59:52.562Z,101461.05
2019-03-20T11:02:57.732Z,101465.38
2019-03-20T11:06:02.864Z,101458.91
2019-03-20T11:09:17.757Z,101448.14
2019-03-20T11:12:16.290Z,101456.25
2019-03-20T11:15:21.717Z,101450.13
2019-03-20T11:18:26.835Z,101445.53
2019-03-20T11:21:31.911Z,101442.05
2019-03-20T11:24:37.037Z,101440.87
2019-03-20T11:27:42.352Z,101437.80
2019-03-20T11:30:47.601Z,101432.00
2019-03-20T11:33:52.699Z,101433.67
2019-03-20T11:36:57.869Z,101437.86
2019-03-20T11:40:03.001Z,101428.61
2019-03-20T11:43:08.650Z,101430.61
2019-03-20T11:46:13.774Z,101429.30
2019-03-20T11:49:18.910Z,101424.13
2019-03-20T11:52:24.154Z,101424.61
2019-03-20T11:55:29.250Z,101417.81
2019-03-20T11:58:34.407Z,101420.51
2019-03-20T12:01:39.643Z,101409.22
2019-03-20T12:04:44.972Z,101399.27
2019-03-20T12:07:50.110Z,101397.50
2019-03-20T12:10:55.240Z,101388.11
2019-03-20T12:14:00.359Z,101392.80
2019-03-20T12:17:05.672Z,101391.66
2019-03-20T12:20:14.026Z,101387.56
2019-03-20T12:23:19.222Z,101384.27
2019-03-20T12:26:24.431Z,101386.02
2019-03-20T12:29:29.598Z,101385.40
2019-03-20T12:32:34.821Z,101387.67
2019-03-20T12:35:39.974Z,101382.37
2019-03-20T12:38:45.059Z,101372.03
2019-03-20T12:41:50.248Z,101373.78
2019-03-20T12:44:55.409Z,101368.10
2019-03-20T12:48:00.630Z,101371.38
2019-03-20T12:51:05.782Z,101368.84
2019-03-20T12:54:10.929Z,101358.05
2019-03-20T12:57:16.051Z,101359.06
2019-03-20T13:00:22.139Z,101365.91
2019-03-20T13:03:27.396Z,101357.84
2019-03-20T13:06:32.581Z,101351.55
2019-03-20T13:09:37.719Z,101353.46
2019-03-20T13:12:42.836Z,101349.33
2019-03-20T13:15:49.086Z,101340.71
2019-03-20T13:18:54.202Z,101357.20
2019-03-20T13:21:59.328Z,101337.98
2019-03-20T13:25:06.686Z,101338.77
2019-03-20T13:28:11.862Z,101335.33
2019-03-20T13:31:19.319Z,101331.85
2019-03-20T13:34:24.478Z,101328.69
2019-03-20T13:37:29.590Z,101330.88
2019-03-20T13:40:34.734Z,101329.55
2019-03-20T13:43:39.897Z,101319.97
2019-03-20T13:46:46.074Z,101329.21
2019-03-20T13:49:51.264Z,101326.77
2019-03-20T13:52:56.384Z,101331.09
2019-03-20T13:56:01.538Z,101327.09
2019-03-20T13:59:06.718Z,101321.48
2019-03-20T14:02:12.976Z,101324.51
2019-03-20T14:05:18.233Z,101322.81
2019-03-20T14:08:23.474Z,101319.34
2019-03-20T14:11:28.537Z,101321.37
2019-03-20T14:14:33.707Z,101321.16
2019-03-20T14:17:39.946Z,101326.52
2019-03-20T14:20:45.047Z,101328.05
2019-03-20T14:23:50.157Z,101326.08
2019-03-20T14:26:55.361Z,101321.52
2019-03-20T14:30:00.541Z,101321.27
2019-03-20T14:33:05.732Z,101317.22
2019-03-20T14:36:10.794Z,101319.57
2019-03-20T14:39:15.963Z,101314.63
2019-03-20T14:42:21.073Z,101315.87
2019-03-20T14:45:26.293Z,101314.59
2019-03-20T14:48:31.412Z,101314.49
2019-03-20T14:51:36.547Z,101307.54
2019-03-20T14:54:41.841Z,101309.47
2019-03-20T14:57:47.000Z,101314.91
2019-03-20T15:00:52.120Z,101316.78
2019-03-20T15:03:57.366Z,101317.30
2019-03-20T15:07:02.584Z,101325.22
2019-03-20T15:10:08.572Z,101329.25
2019-03-20T15:13:13.811Z,101323.59
2019-03-20T15:16:18.984Z,101325.03
2019-03-20T15:19:24.116Z,101327.04
2019-03-20T15:22:29.355Z,101333.81
2019-03-20T15:25:34.459Z,101332.50
2019-03-20T15:28:39.584Z,101329.42
2019-03-20T15:31:44.736Z,101324.16
2019-03-20T15:34:49.958Z,101329.61
2019-03-20T15:37:55.126Z,101328.89
2019-03-20T15:41:00.322Z,101320.02
2019-03-20T15:44:05.501Z,101324.14
2019-03-20T15:47:10.680Z,101317.07
2019-03-20T15:50:16.732Z,101308.64
2019-03-20T15:53:21.894Z,101315.83
2019-03-20T15:56:27.992Z,101307.67
2019-03-20T15:59:33.136Z,101297.11
2019-03-20T16:02:38.293Z,101302.86
2019-03-20T16:05:43.483Z,101298.91
2019-03-20T16:08:48.582Z,101315.84
2019-03-20T16:11:53.748Z,101306.35
2019-03-20T16:14:58.930Z,101305.38
2019-03-20T16:18:04.194Z,101305.02
2019-03-20T16:21:09.367Z,101307.67
2019-03-20T16:24:14.509Z,101308.59
2019-03-20T16:27:19.747Z,101312.38
2019-03-20T16:30:25.007Z,101304.41
2019-03-20T16:33:30.261Z,101302.80
2019-03-20T16:36:35.427Z,101315.88
2019-03-20T16:39:40.561Z,101307.48
2019-03-20T16:42:46.765Z,101311.87
2019-03-20T16:45:51.998Z,101314.61
2019-03-20T16:48:57.250Z,101311.96
2019-03-20T16:52:02.371Z,101318.70
2019-03-20T16:55:08.411Z,101316.17
2019-03-20T16:58:13.643Z,101311.31
2019-03-20T17:01:19.113Z,101322.09
2019-03-20T17:04:24.307Z,101314.37
2019-03-20T17:07:29.406Z,101318.69
2019-03-20T17:10:36.832Z,101321.55
2019-03-20T17:13:41.985Z,101315.66
2019-03-20T17:16:47.153Z,101318.09
2019-03-20T17:19:52.269Z,101318.88
2019-03-20T17:22:57.511Z,101326.55
2019-03-20T17:26:03.690Z,101328.61
2019-03-20T17:29:09.427Z,101336.38
2019-03-20T17:32:15.596Z,101335.59
2019-03-20T17:35:20.718Z,101338.25
2019-03-20T17:38:25.867Z,101334.23
2019-03-20T17:41:36.665Z,101338.88
2019-03-20T17:44:37.879Z,101354.43
2019-03-20T17:47:43.057Z,101349.55
2019-03-20T17:50:48.221Z,101356.78
2019-03-20T17:53:53.329Z,101363.36
2019-03-20T17:56:58.509Z,101366.00
2019-03-20T18:00:03.964Z,101372.98
2019-03-20T18:03:09.267Z,101369.14
2019-03-20T18:06:14.315Z,101372.95
2019-03-20T18:09:19.491Z,101379.02
2019-03-20T18:12:24.716Z,101379.97
2019-03-20T18:15:29.875Z,101385.25
2019-03-20T18:18:34.992Z,101386.88
2019-03-20T18:21:40.187Z,101386.65
2019-03-20T18:24:45.322Z,101382.97
2019-03-20T18:27:50.599Z,101384.81
2019-03-20T18:30:55.748Z,101387.72
2019-03-20T18:34:00.879Z,101391.32
2019-03-20T18:37:06.134Z,101395.95
2019-03-20T18:40:12.622Z,101407.48
2019-03-20T18:43:17.960Z,101411.36
2019-03-20T18:46:23.136Z,101416.92
2019-03-20T18:49:28.409Z,101420.74
2019-03-20T18:52:33.564Z,101414.71
2019-03-20T18:55:38.731Z,101415.90
2019-03-20T18:58:43.905Z,101420.25
2019-03-20T19:01:49.102Z,101421.50
2019-03-20T19:04:54.397Z,101431.38
2019-03-20T19:07:59.572Z,101430.33
2019-03-20T19:11:04.962Z,101432.38
2019-03-20T19:14:10.184Z,101434.73
2019-03-20T19:17:15.372Z,101436.34
2019-03-20T19:20:20.535Z,101437.65
2019-03-20T19:23:26.594Z,101433.60
2019-03-20T19:26:31.901Z,101444.45
2019-03-20T19:29:37.054Z,101447.59
2019-03-20T19:32:42.232Z,101454.89
2019-03-20T19:35:47.438Z,101456.11
2019-03-20T19:38:52.650Z,101453.25
2019-03-20T19:41:57.847Z,101454.95
2019-03-20T19:45:03.082Z,101464.23
2019-03-20T19:48:08.373Z,101459.04
2019-03-20T19:51:15.545Z,101467.84
2019-03-20T19:54:20.759Z,101469.55
2019-03-20T19:57:25.972Z,101471.27
2019-03-20T20:00:31.125Z,101475.06
2019-03-20T20:03:36.291Z,101471.35
2019-03-20T20:06:41.517Z,101470.19
2019-03-20T20:09:46.827Z,101476.64
2019-03-20T20:12:51.951Z,101479.86
2019-03-20T20:15:57.180Z,101486.42
2019-03-20T20:19:02.357Z,101476.64
2019-03-20T20:22:07.565Z,101484.95
2019-03-20T20:25:12.744Z,101494.28
2019-03-20T20:28:18.072Z,101488.13
2019-03-20T20:31:23.212Z,101497.92
2019-03-20T20:34:28.451Z,101497.68
2019-03-20T20:37:33.689Z,101491.02
2019-03-20T20:40:38.786Z,101508.91
2019-03-20T20:43:44.008Z,101507.48
2019-03-20T20:46:49.196Z,101499.74
2019-03-20T20:49:54.338Z,101503.84
2019-03-20T20:52:59.500Z,101507.73
2019-03-20T20:56:04.738Z,101507.13
2019-03-20T20:59:09.893Z,101505.64
2019-03-20T21:02:15.015Z,101507.95
2019-03-20T21:05:22.313Z,101503.34
2019-03-20T21:08:27.560Z,101509.15
2019-03-20T21:11:32.695Z,101511.22
2019-03-20T21:14:38.011Z,101517.97
2019-03-20T21:18:14.879Z,101513.19
2019-03-20T21:21:22.188Z,101510.91
2019-03-20T21:24:26.562Z,101511.77
2019-03-20T21:28:28.579Z,101511.28
2019-03-20T21:31:54.005Z,101516.93
2019-03-20T21:35:34.555Z,101512.48
2019-03-20T21:38:41.238Z,101518.05
2019-03-20T21:42:12.171Z,101517.56
2019-03-20T21:46:10.177Z,101518.58
2019-03-20T21:49:15.904Z,101524.48
2019-03-20T21:52:21.660Z,101518.63
2019-03-20T21:56:03.951Z,101517.07
2019-03-20T21:59:52.500Z,101525.05
2019-03-20T22:02:58.218Z,101520.02
2019-03-20T22:06:39.971Z,101526.84
2019-03-20T22:10:35.055Z,101530.83
2019-03-20T22:13:50.590Z,101524.48
2019-03-20T22:17:31.769Z,101523.28
2019-03-20T22:21:27.486Z,101518.41
2019-03-20T22:25:09.856Z,101513.19
2019-03-20T22:28:56.123Z,101509.53
2019-03-20T22:32:50.799Z,101510.80
2019-03-20T22:36:00.361Z,101512.77
2019-03-20T22:39:37.809Z,101512.98
2019-03-20T22:42:54.334Z,101518.89
2019-03-20T22:50:14.757Z,101521.65
2019-03-20T22:54:02.481Z,101510.19
2019-03-20T22:57:27.759Z,101515.04
2019-03-20T23:00:33.533Z,101513.42
2019-03-20T23:03:43.634Z,101515.27
2019-03-20T23:06:49.397Z,101518.02
2019-03-20T23:09:55.188Z,101514.59
2019-03-20T23:13:00.956Z,101520.39
2019-03-20T23:16:08.014Z,101520.73
2019-03-20T23:19:13.922Z,101520.44
2019-03-20T23:22:19.609Z,101514.42
2019-03-20T23:25:25.300Z,101511.47
2019-03-20T23:28:31.144Z,101519.78
2019-03-20T23:31:36.900Z,101509.84
2019-03-20T23:34:42.854Z,101517.27
2019-03-20T23:37:49.656Z,101517.33
2019-03-20T23:40:55.800Z,101509.80
2019-03-20T23:44:01.567Z,101510.55
2019-03-20T23:47:07.405Z,101509.45
2019-03-20T23:50:13.301Z,101511.22
2019-03-20T23:53:19.035Z,101511.31
2019-03-20T23:56:27.236Z,101519.92
2019-03-20T23:59:32.889Z,101521.83
